createdAt,value
2023-05-21T00:01:27.073Z,101025.50
2023-05-21T00:03:57.213Z,101020.06
2023-05-21T00:06:25.901Z,101017.50
2023-05-21T00:08:57.118Z,101022.91
2023-05-21T00:11:24.547Z,101015.97
2023-05-21T00:13:51.328Z,101021.78
2023-05-21T00:16:21.276Z,101012.91
2023-05-21T00:18:50.434Z,101007.66
2023-05-21T00:21:18.208Z,101003.28
2023-05-21T00:23:45.855Z,100999.66
2023-05-21T00:26:16.358Z,100993.97
2023-05-21T00:28:43.207Z,100995.00
2023-05-21T00:31:10.601Z,100992.44
2023-05-21T00:33:37.720Z,100985.88
2023-05-21T00:36:11.048Z,100982.41
2023-05-21T00:38:46.262Z,100975.25
2023-05-21T00:41:15.642Z,100974.59
2023-05-21T00:43:42.768Z,100963.06
2023-05-21T00:46:18.172Z,100968.09
2023-05-21T00:48:46.751Z,100960.66
2023-05-21T00:51:19.393Z,100962.66
2023-05-21T00:53:46.949Z,100955.34
2023-05-21T00:56:14.066Z,100956.25
2023-05-21T00:58:42.138Z,100945.53
2023-05-21T01:01:14.291Z,100945.34
2023-05-21T01:03:41.419Z,100939.97
2023-05-21T01:06:10.050Z,100939.91
2023-05-21T01:08:38.917Z,100931.81
2023-05-21T01:11:07.310Z,100916.88
2023-05-21T01:13:37.147Z,100917.69
2023-05-21T01:16:06.884Z,100922.50
2023-05-21T01:18:38.403Z,100914.91
2023-05-21T01:21:07.786Z,100914.78
2023-05-21T01:23:35.192Z,100907.31
2023-05-21T01:26:05.222Z,100909.31
2023-05-21T01:28:35.001Z,100906.59
2023-05-21T01:31:13.319Z,100905.72
2023-05-21T01:33:49.504Z,100903.03
2023-05-21T01:36:27.042Z,100893.19
2023-05-21T01:39:18.007Z,100886.16
2023-05-21T01:41:46.562Z,100883.38
2023-05-21T01:44:15.223Z,100878.13
2023-05-21T01:46:46.852Z,100879.44
2023-05-21T01:49:14.914Z,100872.69
2023-05-21T01:51:41.946Z,100877.94
2023-05-21T01:54:08.974Z,100867.41
2023-05-21T01:56:40.290Z,100860.28
2023-05-21T01:59:07.362Z,100861.00
2023-05-21T02:01:34.767Z,100855.03
2023-05-21T02:04:02.071Z,100849.94
2023-05-21T02:06:29.615Z,100850.94
2023-05-21T02:08:57.568Z,100843.84
2023-05-21T02:11:24.523Z,100854.44
2023-05-21T02:13:51.413Z,100842.97
2023-05-21T02:16:20.049Z,100849.19
2023-05-21T02:18:48.458Z,100854.31
2023-05-21T02:21:15.401Z,100854.31
2023-05-21T02:23:42.919Z,100861.47
2023-05-21T02:26:14.299Z,100862.81
2023-05-21T02:28:57.588Z,100866.44
2023-05-21T02:31:24.491Z,100857.38
2023-05-21T02:33:51.475Z,100854.19
2023-05-21T02:36:27.854Z,100852.66
2023-05-21T02:38:55.396Z,100836.34
2023-05-21T02:41:22.390Z,100826.34
2023-05-21T02:43:49.247Z,100826.66
2023-05-21T02:46:16.225Z,100841.00
2023-05-21T02:48:43.132Z,100835.19
2023-05-21T02:51:11.705Z,100833.16
2023-05-21T02:53:39.499Z,100826.38
2023-05-21T02:56:06.498Z,100822.31
2023-05-21T02:58:35.485Z,100835.56
2023-05-21T03:01:02.405Z,100841.38
2023-05-21T03:03:32.410Z,100831.06
2023-05-21T03:05:59.496Z,100837.22
2023-05-21T03:08:27.000Z,100836.47
2023-05-21T03:10:59.281Z,100842.50
2023-05-21T03:13:28.733Z,100846.78
2023-05-21T03:15:59.264Z,100842.16
2023-05-21T03:18:26.268Z,100849.97
2023-05-21T03:20:53.173Z,100848.94
2023-05-21T03:23:30.435Z,100859.06
2023-05-21T03:26:01.285Z,100859.19
2023-05-21T03:28:30.347Z,100864.66
2023-05-21T03:30:59.498Z,100860.41
2023-05-21T03:33:28.676Z,100862.56
2023-05-21T03:35:55.819Z,100868.00
2023-05-21T03:38:24.038Z,100865.16
2023-05-21T03:40:50.832Z,100862.91
2023-05-21T03:43:21.675Z,100863.78
2023-05-21T03:45:48.656Z,100863.34
2023-05-21T03:48:15.661Z,100866.13
2023-05-21T03:50:43.663Z,100861.91
2023-05-21T03:53:11.252Z,100864.81
2023-05-21T03:55:38.454Z,100870.09
2023-05-21T03:58:07.421Z,100876.72
2023-05-21T04:00:44.611Z,100868.47
2023-05-21T04:03:12.176Z,100867.63
2023-05-21T04:05:39.172Z,100870.16
2023-05-21T04:08:08.989Z,100866.00
2023-05-21T04:10:39.204Z,100867.75
2023-05-21T04:13:06.855Z,100871.28
2023-05-21T04:15:44.403Z,100874.34
2023-05-21T04:18:11.340Z,100872.19
2023-05-21T04:20:38.259Z,100881.94
2023-05-21T04:23:05.457Z,100882.88
2023-05-21T04:25:34.351Z,100886.75
2023-05-21T04:28:01.643Z,100884.09
2023-05-21T04:30:28.761Z,100887.66
2023-05-21T04:32:59.073Z,100894.72
2023-05-21T04:35:30.250Z,100896.56
2023-05-21T04:37:57.198Z,100888.56
2023-05-21T04:40:24.982Z,100886.69
2023-05-21T04:42:57.130Z,100880.41
2023-05-21T04:45:25.631Z,100881.25
2023-05-21T04:47:52.556Z,100882.88
2023-05-21T04:50:23.833Z,100887.13
2023-05-21T04:52:58.533Z,100890.56
2023-05-21T04:55:30.812Z,100891.88
2023-05-21T04:58:06.924Z,100894.94
2023-05-21T05:00:41.245Z,100898.78
2023-05-21T05:03:10.424Z,100897.94
2023-05-21T05:05:38.173Z,100904.66
2023-05-21T05:08:07.939Z,100905.69
2023-05-21T05:10:36.657Z,100893.50
2023-05-21T05:13:03.652Z,100900.47
2023-05-21T05:15:32.540Z,100908.28
2023-05-21T05:18:00.116Z,100905.56
2023-05-21T05:20:31.667Z,100902.13
2023-05-21T05:22:58.579Z,100909.13
2023-05-21T05:25:25.726Z,100909.72
2023-05-21T05:27:52.790Z,100904.50
2023-05-21T05:30:20.850Z,100913.97
2023-05-21T05:32:48.951Z,100910.50
2023-05-21T05:35:17.069Z,100904.44
2023-05-21T05:37:45.635Z,100902.13
2023-05-21T05:40:12.793Z,100900.84
2023-05-21T05:42:44.858Z,100903.63
2023-05-21T05:45:27.673Z,100908.13
2023-05-21T05:48:09.163Z,100910.22
2023-05-21T05:50:36.219Z,100905.88
2023-05-21T05:53:03.119Z,100896.66
2023-05-21T05:55:29.978Z,100900.25
2023-05-21T05:57:56.927Z,100891.16
2023-05-21T06:00:26.523Z,100897.22
2023-05-21T06:02:54.645Z,100898.16
2023-05-21T06:05:21.675Z,100888.97
2023-05-21T06:07:49.021Z,100889.13
2023-05-21T06:10:16.187Z,100887.69
2023-05-21T06:12:57.840Z,100883.94
2023-05-21T06:15:45.300Z,100872.44
2023-05-21T06:18:13.680Z,100883.94
2023-05-21T06:21:01.868Z,100883.94
2023-05-21T06:23:48.692Z,100877.75
2023-05-21T06:26:19.371Z,100876.50
2023-05-21T06:28:48.251Z,100877.09
2023-05-21T06:31:16.659Z,100886.44
2023-05-21T06:33:46.457Z,100891.75
2023-05-21T06:36:20.448Z,100886.44
2023-05-21T06:38:50.908Z,100888.31
2023-05-21T06:41:23.106Z,100894.06
2023-05-21T06:43:54.185Z,100897.53
2023-05-21T06:46:23.313Z,100893.75
2023-05-21T06:48:55.878Z,100890.34
2023-05-21T06:51:46.891Z,100893.66
2023-05-21T06:54:21.284Z,100891.66
2023-05-21T06:57:05.665Z,100893.88
2023-05-21T06:59:46.393Z,100896.25
2023-05-21T07:02:21.358Z,100901.25
2023-05-21T07:04:52.314Z,100902.88
2023-05-21T07:07:19.107Z,100906.03
2023-05-21T07:09:48.259Z,100907.94
2023-05-21T07:12:22.493Z,100898.25
2023-05-21T07:14:52.743Z,100903.09
2023-05-21T07:17:29.123Z,100900.50
2023-05-21T07:19:56.348Z,100901.03
2023-05-21T07:22:27.936Z,100906.94
2023-05-21T07:25:06.633Z,100894.56
2023-05-21T07:27:39.272Z,100897.00
2023-05-21T07:30:07.857Z,100892.94
2023-05-21T07:32:47.505Z,100899.03
2023-05-21T07:35:15.205Z,100903.28
2023-05-21T07:37:42.218Z,100897.06
2023-05-21T07:40:12.181Z,100901.91
2023-05-21T07:42:41.205Z,100908.19
2023-05-21T07:45:09.881Z,100907.28
2023-05-21T07:47:36.814Z,100901.75
2023-05-21T07:50:04.577Z,100900.19
2023-05-21T07:52:33.826Z,100893.28
2023-05-21T07:55:02.493Z,100890.84
2023-05-21T07:57:29.457Z,100889.97
2023-05-21T07:59:56.897Z,100884.50
2023-05-21T08:02:35.082Z,100881.91
2023-05-21T08:05:02.188Z,100886.41
2023-05-21T08:07:29.163Z,100889.06
2023-05-21T08:09:57.229Z,100888.09
2023-05-21T08:12:24.385Z,100897.31
2023-05-21T08:14:51.388Z,100891.38
2023-05-21T08:17:18.341Z,100897.81
2023-05-21T08:19:45.220Z,100893.72
2023-05-21T08:22:12.101Z,100882.41
2023-05-21T08:24:42.639Z,100886.97
2023-05-21T08:27:20.413Z,100892.41
2023-05-21T08:29:54.369Z,100888.88
2023-05-21T08:32:21.454Z,100890.41
2023-05-21T08:34:51.239Z,100885.75
2023-05-21T08:37:18.666Z,100886.75
2023-05-21T08:39:45.776Z,100883.00
2023-05-21T08:42:51.633Z,100884.75
2023-05-21T08:45:26.952Z,100887.69
2023-05-21T08:48:01.177Z,100887.00
2023-05-21T08:50:31.997Z,100885.75
2023-05-21T08:53:04.039Z,100887.94
2023-05-21T08:55:42.938Z,100891.91
2023-05-21T08:58:10.859Z,100887.50
2023-05-21T09:00:42.502Z,100888.81
2023-05-21T09:03:15.957Z,100895.94
2023-05-21T09:05:46.236Z,100902.28
2023-05-21T09:08:24.980Z,100888.19
2023-05-21T09:10:53.311Z,100901.44
2023-05-21T09:13:20.783Z,100896.44
2023-05-21T09:15:49.139Z,100891.72
2023-05-21T09:18:16.029Z,100890.25
2023-05-21T09:20:44.429Z,100902.13
2023-05-21T09:23:21.903Z,100900.38
2023-05-21T09:25:49.568Z,100892.78
2023-05-21T09:28:19.934Z,100900.88
2023-05-21T09:30:48.455Z,100894.84
2023-05-21T09:33:26.536Z,100897.47
2023-05-21T09:35:53.488Z,100898.06
2023-05-21T09:38:27.489Z,100902.94
2023-05-21T09:40:57.133Z,100908.75
2023-05-21T09:43:26.040Z,100897.56
2023-05-21T09:45:55.681Z,100896.75
2023-05-21T09:48:41.314Z,100902.97
2023-05-21T09:51:20.977Z,100910.22
2023-05-21T09:54:17.548Z,100904.81
2023-05-21T09:56:55.746Z,100908.72
2023-05-21T09:59:35.492Z,100905.34
2023-05-21T10:02:02.891Z,100903.66
2023-05-21T10:04:31.885Z,100897.91
2023-05-21T10:07:01.808Z,100905.47
2023-05-21T10:09:37.666Z,100905.56
2023-05-21T10:12:04.829Z,100899.94
2023-05-21T10:14:45.504Z,100901.97
2023-05-21T10:17:17.874Z,100908.25
2023-05-21T10:20:07.737Z,100902.19
2023-05-21T10:22:46.118Z,100892.63
2023-05-21T10:25:17.603Z,100902.00
2023-05-21T10:27:45.589Z,100905.88
2023-05-21T10:30:21.290Z,100906.44
2023-05-21T10:33:06.501Z,100899.75
2023-05-21T10:35:38.912Z,100905.59
2023-05-21T10:38:16.346Z,100903.53
2023-05-21T10:40:50.249Z,100892.59
2023-05-21T10:43:20.202Z,100888.97
2023-05-21T10:46:02.510Z,100893.13
2023-05-21T10:48:40.879Z,100884.03
2023-05-21T10:51:20.539Z,100877.47
2023-05-21T10:54:07.066Z,100874.50
2023-05-21T10:56:43.825Z,100872.78
2023-05-21T10:59:35.867Z,100869.78
2023-05-21T11:02:05.481Z,100867.16
2023-05-21T11:04:32.640Z,100866.09
2023-05-21T11:06:59.651Z,100869.25
2023-05-21T11:09:27.922Z,100873.06
2023-05-21T11:11:59.673Z,100872.00
2023-05-21T11:14:35.591Z,100868.34
2023-05-21T11:17:03.651Z,100850.94
2023-05-21T11:20:05.259Z,100860.00
2023-05-21T11:22:42.181Z,100859.19
2023-05-21T11:25:09.479Z,100850.63
2023-05-21T11:27:39.475Z,100852.13
2023-05-21T11:30:26.230Z,100850.16
2023-05-21T11:33:08.550Z,100844.41
2023-05-21T11:35:53.115Z,100843.19
2023-05-21T11:38:21.271Z,100840.03
2023-05-21T11:40:56.825Z,100848.72
2023-05-21T11:43:23.740Z,100838.50
2023-05-21T11:45:53.429Z,100843.91
2023-05-21T11:48:21.825Z,100853.66
2023-05-21T11:50:49.260Z,100846.25
2023-05-21T11:53:16.160Z,100842.00
2023-05-21T11:55:49.239Z,100832.50
2023-05-21T11:58:17.510Z,100834.63
2023-05-21T12:00:44.289Z,100844.78
2023-05-21T12:03:14.568Z,100835.47
2023-05-21T12:06:10.582Z,100832.78
2023-05-21T12:08:38.788Z,100842.97
2023-05-21T12:11:06.084Z,100846.75
2023-05-21T12:13:33.138Z,100843.44
2023-05-21T12:16:00.206Z,100834.88
2023-05-21T12:18:27.369Z,100845.94
2023-05-21T12:20:54.263Z,100843.16
2023-05-21T12:23:24.387Z,100843.63
2023-05-21T12:25:56.941Z,100839.66
2023-05-21T12:28:26.738Z,100834.97
2023-05-21T12:30:56.372Z,100828.19
2023-05-21T12:33:44.606Z,100829.94
2023-05-21T12:36:37.808Z,100841.47
2023-05-21T12:39:05.015Z,100842.47
2023-05-21T12:41:48.357Z,100844.09
2023-05-21T12:44:16.647Z,100840.44
2023-05-21T12:46:43.882Z,100834.03
2023-05-21T12:49:31.570Z,100835.91
2023-05-21T12:52:23.381Z,100824.78
2023-05-21T12:54:53.527Z,100827.19
2023-05-21T12:57:26.195Z,100825.28
2023-05-21T12:59:57.839Z,100826.13
2023-05-21T13:02:26.520Z,100822.66
2023-05-21T13:05:00.975Z,100822.09
2023-05-21T13:07:30.054Z,100825.00
2023-05-21T13:09:57.579Z,100812.56
2023-05-21T13:12:29.910Z,100809.81
2023-05-21T13:14:59.291Z,100804.34
2023-05-21T13:17:38.907Z,100809.00
2023-05-21T13:20:32.701Z,100806.25
2023-05-21T13:23:13.174Z,100804.97
2023-05-21T13:25:45.300Z,100806.84
2023-05-21T13:28:15.442Z,100809.50
2023-05-21T13:30:44.085Z,100804.63
2023-05-21T13:33:11.911Z,100791.75
2023-05-21T13:35:38.893Z,100794.91
2023-05-21T13:38:09.567Z,100792.34
2023-05-21T13:40:50.031Z,100797.28
2023-05-21T13:43:28.646Z,100781.56
2023-05-21T13:45:57.693Z,100782.53
2023-05-21T13:48:24.594Z,100785.50
2023-05-21T13:50:51.487Z,100777.50
2023-05-21T13:53:25.394Z,100788.09
2023-05-21T13:55:54.941Z,100784.53
2023-05-21T13:58:21.844Z,100780.03
2023-05-21T14:00:48.810Z,100777.00
2023-05-21T14:03:16.129Z,100780.50
2023-05-21T14:05:42.951Z,100776.47
2023-05-21T14:08:09.810Z,100779.16
2023-05-21T14:10:37.684Z,100770.75
2023-05-21T14:13:18.350Z,100772.44
2023-05-21T14:15:47.287Z,100781.03
2023-05-21T14:18:14.250Z,100778.53
2023-05-21T14:20:53.348Z,100773.63
2023-05-21T14:23:21.265Z,100783.06
2023-05-21T14:25:55.045Z,100781.22
2023-05-21T14:28:28.560Z,100775.97
2023-05-21T14:31:01.290Z,100778.22
2023-05-21T14:33:28.236Z,100775.38
2023-05-21T14:35:56.605Z,100769.06
2023-05-21T14:38:28.476Z,100773.34
2023-05-21T14:41:07.254Z,100771.13
2023-05-21T14:43:34.775Z,100773.50
2023-05-21T14:46:12.594Z,100771.47
2023-05-21T14:48:40.623Z,100773.91
2023-05-21T14:51:08.778Z,100770.03
2023-05-21T14:53:35.749Z,100775.16
2023-05-21T14:56:02.812Z,100770.25
2023-05-21T14:58:33.231Z,100775.88
2023-05-21T15:01:04.529Z,100777.78
2023-05-21T15:03:32.979Z,100763.63
2023-05-21T15:06:03.813Z,100765.31
2023-05-21T15:08:30.820Z,100765.81
2023-05-21T15:10:57.764Z,100768.19
2023-05-21T15:13:30.992Z,100771.78
2023-05-21T15:15:57.874Z,100780.22
2023-05-21T15:18:25.137Z,100782.31
2023-05-21T15:20:53.212Z,100782.50
2023-05-21T15:23:20.098Z,100766.28
2023-05-21T15:25:47.068Z,100770.81
2023-05-21T15:28:13.990Z,100771.59
2023-05-21T15:30:46.293Z,100775.03
2023-05-21T15:33:13.340Z,100769.88
2023-05-21T15:35:42.061Z,100776.56
2023-05-21T15:38:09.387Z,100773.66
2023-05-21T15:40:36.476Z,100767.75
2023-05-21T15:43:03.598Z,100775.56
2023-05-21T15:45:30.625Z,100776.75
2023-05-21T15:47:57.721Z,100773.84
2023-05-21T15:50:24.923Z,100767.50
2023-05-21T15:52:53.343Z,100770.47
2023-05-21T15:55:22.364Z,100769.78
2023-05-21T15:57:49.259Z,100763.66
2023-05-21T16:00:17.230Z,100756.94
2023-05-21T16:02:44.970Z,100756.75
2023-05-21T16:05:15.037Z,100755.41
2023-05-21T16:07:41.956Z,100753.75
2023-05-21T16:10:09.961Z,100746.53
2023-05-21T16:12:37.002Z,100740.44
2023-05-21T16:15:07.160Z,100748.13
2023-05-21T16:17:35.521Z,100745.66
2023-05-21T16:20:05.674Z,100741.19
2023-05-21T16:22:33.427Z,100736.91
2023-05-21T16:25:00.539Z,100740.34
2023-05-21T16:27:27.613Z,100738.66
2023-05-21T16:29:54.773Z,100728.69
2023-05-21T16:32:22.362Z,100735.25
2023-05-21T16:34:49.809Z,100735.00
2023-05-21T16:37:16.818Z,100731.72
2023-05-21T16:39:43.932Z,100736.84
2023-05-21T16:42:10.861Z,100739.81
2023-05-21T16:44:41.675Z,100734.78
2023-05-21T16:47:08.703Z,100738.94
2023-05-21T16:49:36.083Z,100732.41
2023-05-21T16:52:06.678Z,100737.13
2023-05-21T16:54:34.272Z,100743.44
2023-05-21T16:57:07.542Z,100739.25
2023-05-21T16:59:34.574Z,100734.22
2023-05-21T17:02:02.257Z,100738.66
2023-05-21T17:04:29.771Z,100734.28
2023-05-21T17:06:57.886Z,100732.97
2023-05-21T17:09:25.147Z,100723.84
2023-05-21T17:12:03.701Z,100736.56
2023-05-21T17:14:41.215Z,100734.97
2023-05-21T17:17:08.620Z,100732.34
2023-05-21T17:19:36.722Z,100736.84
2023-05-21T17:22:05.714Z,100743.34
2023-05-21T17:24:33.524Z,100738.84
2023-05-21T17:27:08.450Z,100740.31
2023-05-21T17:29:35.876Z,100739.25
2023-05-21T17:32:03.197Z,100746.78
2023-05-21T17:34:30.848Z,100744.06
2023-05-21T17:37:02.484Z,100743.75
2023-05-21T17:39:31.088Z,100748.78
2023-05-21T17:41:58.158Z,100745.25
2023-05-21T17:44:25.657Z,100756.16
2023-05-21T17:46:56.925Z,100753.69
2023-05-21T17:49:24.016Z,100757.47
2023-05-21T17:51:51.128Z,100761.63
2023-05-21T17:54:19.098Z,100757.19
2023-05-21T17:56:46.555Z,100765.78
2023-05-21T17:59:15.034Z,100761.69
2023-05-21T18:01:44.172Z,100760.09
2023-05-21T18:04:12.800Z,100758.38
2023-05-21T18:06:50.570Z,100752.34
2023-05-21T18:09:17.826Z,100766.44
2023-05-21T18:11:45.032Z,100761.88
2023-05-21T18:14:12.117Z,100767.81
2023-05-21T18:16:39.243Z,100772.78
2023-05-21T18:19:07.360Z,100769.97
2023-05-21T18:21:38.120Z,100766.88
2023-05-21T18:24:17.828Z,100774.03
2023-05-21T18:26:48.398Z,100772.59
2023-05-21T18:29:20.125Z,100771.88
2023-05-21T18:31:48.541Z,100778.47
2023-05-21T18:34:22.465Z,100787.50
2023-05-21T18:36:49.751Z,100793.53
2023-05-21T18:39:16.916Z,100794.50
2023-05-21T18:41:44.043Z,100796.50
2023-05-21T18:44:11.017Z,100795.38
2023-05-21T18:46:38.165Z,100805.50
2023-05-21T18:49:05.689Z,100806.78
2023-05-21T18:51:32.998Z,100810.97
2023-05-21T18:54:03.229Z,100815.47
2023-05-21T18:56:34.620Z,100822.72
2023-05-21T18:59:03.112Z,100822.63
2023-05-21T19:01:33.482Z,100822.09
2023-05-21T19:04:01.756Z,100831.06
2023-05-21T19:06:32.363Z,100838.91
2023-05-21T19:09:05.921Z,100836.97
2023-05-21T19:11:37.646Z,100840.50
2023-05-21T19:14:04.906Z,100854.53
2023-05-21T19:16:31.947Z,100851.47
2023-05-21T19:18:59.112Z,100854.63
2023-05-21T19:21:26.238Z,100849.28
2023-05-21T19:23:54.056Z,100854.63
2023-05-21T19:26:23.034Z,100853.94
2023-05-21T19:28:55.694Z,100864.06
2023-05-21T19:31:24.318Z,100864.66
2023-05-21T19:33:52.214Z,100870.59
2023-05-21T19:36:20.754Z,100877.84
2023-05-21T19:38:48.753Z,100878.00
2023-05-21T19:41:19.887Z,100880.09
2023-05-21T19:43:46.989Z,100881.47
2023-05-21T19:46:18.136Z,100889.53
2023-05-21T19:48:46.953Z,100891.47
2023-05-21T19:51:14.135Z,100887.91
2023-05-21T19:53:51.000Z,100890.97
2023-05-21T19:56:23.696Z,100890.50
2023-05-21T19:59:03.066Z,100904.22
2023-05-21T20:01:34.964Z,100897.88
2023-05-21T20:04:23.274Z,100907.50
2023-05-21T20:07:04.640Z,100906.31
2023-05-21T20:09:50.507Z,100903.06
2023-05-21T20:12:37.942Z,100898.97
2023-05-21T20:15:07.370Z,100906.78
2023-05-21T20:17:34.923Z,100905.97
2023-05-21T20:20:08.705Z,100915.13
2023-05-21T20:22:37.958Z,100916.53
2023-05-21T20:25:09.078Z,100917.78
2023-05-21T20:27:49.437Z,100916.97
2023-05-21T20:30:16.990Z,100921.03
2023-05-21T20:33:01.178Z,100926.34
2023-05-21T20:35:30.012Z,100915.53
2023-05-21T20:38:01.690Z,100920.69
2023-05-21T20:40:38.703Z,100911.91
2023-05-21T20:43:19.217Z,100918.94
2023-05-21T20:45:51.203Z,100927.41
2023-05-21T20:48:30.733Z,100913.22
2023-05-21T20:51:05.070Z,100913.13
2023-05-21T20:53:35.438Z,100924.59
2023-05-21T20:56:23.908Z,100910.91
2023-05-21T20:59:12.541Z,100904.00
2023-05-21T21:01:52.299Z,100915.34
2023-05-21T21:04:24.691Z,100910.03
2023-05-21T21:06:58.517Z,100910.44
2023-05-21T21:09:25.477Z,100906.84
2023-05-21T21:11:58.102Z,100909.84
2023-05-21T21:14:25.658Z,100913.66
2023-05-21T21:17:00.078Z,100913.66
2023-05-21T21:19:38.259Z,100915.38
2023-05-21T21:22:05.845Z,100923.31
2023-05-21T21:24:36.563Z,100927.94
2023-05-21T21:27:06.850Z,100920.72
2023-05-21T21:29:47.119Z,100927.75
2023-05-21T21:32:15.102Z,100927.41
2023-05-21T21:34:42.175Z,100928.72
2023-05-21T21:37:09.188Z,100922.84
2023-05-21T21:39:36.155Z,100927.31
2023-05-21T21:42:03.319Z,100932.19
2023-05-21T21:44:30.345Z,100929.81
2023-05-21T21:47:03.504Z,100939.41
2023-05-21T21:49:30.624Z,100939.91
2023-05-21T21:52:01.089Z,100951.88
2023-05-21T21:54:28.639Z,100947.97
2023-05-21T21:56:55.802Z,100948.56
2023-05-21T21:59:23.244Z,100942.38
2023-05-21T22:01:50.425Z,100944.47
2023-05-21T22:04:18.489Z,100947.69
2023-05-21T22:06:48.670Z,100948.53
2023-05-21T22:09:18.627Z,100946.81
2023-05-21T22:11:45.694Z,100940.41
2023-05-21T22:14:13.144Z,100948.53
2023-05-21T22:16:41.994Z,100946.50
2023-05-21T22:19:12.310Z,100945.03
2023-05-21T22:21:50.060Z,100952.31
2023-05-21T22:24:32.102Z,100957.38
2023-05-21T22:27:14.347Z,100946.53
2023-05-21T22:29:51.394Z,100949.50
2023-05-21T22:32:18.565Z,100951.22
2023-05-21T22:34:45.660Z,100949.97
2023-05-21T22:37:12.815Z,100951.47
2023-05-21T22:39:42.024Z,100946.81
2023-05-21T22:42:14.957Z,100950.56
2023-05-21T22:44:43.130Z,100947.47
2023-05-21T22:47:10.383Z,100948.22
2023-05-21T22:49:38.385Z,100956.47
2023-05-21T22:52:21.008Z,100948.38
2023-05-21T22:54:52.276Z,100949.66
2023-05-21T22:57:21.774Z,100948.38
2023-05-21T22:59:51.063Z,100946.03
2023-05-21T23:02:21.157Z,100945.88
2023-05-21T23:05:00.849Z,100942.59
2023-05-21T23:07:28.211Z,100935.63
2023-05-21T23:09:55.389Z,100937.84
2023-05-21T23:12:25.334Z,100936.50
2023-05-21T23:15:07.464Z,100926.84
2023-05-21T23:17:48.093Z,100932.41
2023-05-21T23:20:25.065Z,100925.19
2023-05-21T23:22:55.403Z,100926.53
2023-05-21T23:25:24.158Z,100933.09
2023-05-21T23:27:51.331Z,100933.03
2023-05-21T23:30:20.055Z,100932.72
2023-05-21T23:32:50.968Z,100938.22
2023-05-21T23:35:29.487Z,100938.06
2023-05-21T23:38:00.952Z,100936.41
2023-05-21T23:40:27.958Z,100937.91
2023-05-21T23:42:55.115Z,100934.16
2023-05-21T23:45:22.380Z,100925.31
2023-05-21T23:47:54.610Z,100935.50
2023-05-21T23:50:21.715Z,100936.66
2023-05-21T23:52:48.774Z,100929.91
2023-05-21T23:55:18.967Z,100936.09
2023-05-21T23:57:48.272Z,100943.53
